createdAt,value
2022-11-14T00:02:23.241Z,10.30
2022-11-14T00:07:16.006Z,10.26
2022-11-14T00:12:08.051Z,10.24
2022-11-14T00:16:59.824Z,10.25
2022-11-14T00:21:53.132Z,10.21
2022-11-14T00:26:44.819Z,10.20
2022-11-14T00:31:36.618Z,10.20
2022-11-14T00:36:28.405Z,10.19
2022-11-14T00:41:20.143Z,10.17
2022-11-14T00:46:11.800Z,10.19
2022-11-14T00:51:03.655Z,10.20
2022-11-14T00:55:55.305Z,10.20
2022-11-14T01:00:47.228Z,10.19
2022-11-14T01:05:47.238Z,10.19
2022-11-14T01:10:43.292Z,10.18
2022-11-14T01:15:39.611Z,10.16
2022-11-14T01:20:31.495Z,10.13
2022-11-14T01:25:23.374Z,10.12
2022-11-14T01:30:15.350Z,10.15
2022-11-14T01:35:07.348Z,10.12
2022-11-14T01:39:59.075Z,10.13
2022-11-14T01:44:52.868Z,10.14
2022-11-14T01:49:52.709Z,10.14
2022-11-14T01:54:50.777Z,10.15
2022-11-14T01:59:44.992Z,10.13
2022-11-14T02:04:43.252Z,10.11
2022-11-14T02:09:38.049Z,10.12
2022-11-14T02:14:30.832Z,10.09
2022-11-14T02:19:22.711Z,10.07
2022-11-14T02:24:14.591Z,10.08
2022-11-14T02:29:07.599Z,10.02
2022-11-14T02:33:59.486Z,10.00
2022-11-14T02:38:51.408Z,10.02
2022-11-14T02:43:43.342Z,10.02
2022-11-14T02:48:35.083Z,10.00
2022-11-14T02:53:26.752Z,9.99
2022-11-14T02:58:18.601Z,9.98
2022-11-14T03:03:10.408Z,10.00
2022-11-14T03:08:02.155Z,10.01
2022-11-14T03:12:57.257Z,10.00
2022-11-14T03:17:49.284Z,10.00
2022-11-14T03:22:41.046Z,10.02
2022-11-14T03:27:32.750Z,10.01
2022-11-14T03:32:24.466Z,10.02
2022-11-14T03:37:16.331Z,10.06
2022-11-14T03:42:08.230Z,10.04
2022-11-14T03:47:00.118Z,10.07
2022-11-14T03:51:51.853Z,10.08
2022-11-14T03:56:43.597Z,10.11
2022-11-14T04:01:35.245Z,10.10
2022-11-14T04:06:26.831Z,10.10
2022-11-14T04:11:19.243Z,10.09
2022-11-14T04:16:11.010Z,10.06
2022-11-14T04:21:02.816Z,10.02
2022-11-14T04:25:54.452Z,10.05
2022-11-14T04:30:46.330Z,10.03
2022-11-14T04:35:38.089Z,10.02
2022-11-14T04:40:29.946Z,10.02
2022-11-14T04:45:21.739Z,10.02
2022-11-14T04:50:13.978Z,10.00
2022-11-14T04:55:05.994Z,10.03
2022-11-14T04:59:57.661Z,10.05
2022-11-14T05:04:49.525Z,10.09
2022-11-14T05:09:41.412Z,10.07
2022-11-14T05:14:33.386Z,10.07
2022-11-14T05:19:25.067Z,10.04
2022-11-14T05:24:16.652Z,10.06
2022-11-14T05:29:08.392Z,10.06
2022-11-14T05:34:00.120Z,10.06
2022-11-14T05:38:52.306Z,10.07
2022-11-14T05:43:44.732Z,10.02
2022-11-14T05:48:37.138Z,9.99
2022-11-14T05:53:30.845Z,9.97
2022-11-14T05:58:22.638Z,9.94
2022-11-14T06:03:15.261Z,9.89
2022-11-14T06:08:07.059Z,9.85
2022-11-14T06:12:58.914Z,9.82
2022-11-14T06:17:53.857Z,9.81
2022-11-14T06:22:45.450Z,9.76
2022-11-14T06:27:37.166Z,9.75
2022-11-14T06:32:28.802Z,9.72
2022-11-14T06:37:20.532Z,9.71
2022-11-14T06:42:12.156Z,9.73
2022-11-14T06:47:03.904Z,9.72
2022-11-14T06:51:55.629Z,9.73
2022-11-14T06:56:47.383Z,9.71
2022-11-14T07:01:39.085Z,9.70
2022-11-14T07:06:31.614Z,9.69
2022-11-14T07:11:26.698Z,9.71
2022-11-14T07:16:19.328Z,9.70
2022-11-14T07:21:13.327Z,9.71
2022-11-14T07:26:07.493Z,9.72
2022-11-14T07:30:59.494Z,9.72
2022-11-14T07:35:52.085Z,9.71
2022-11-14T07:40:43.904Z,9.72
2022-11-14T07:45:35.699Z,9.70
2022-11-14T07:50:28.611Z,9.73
2022-11-14T07:55:20.997Z,9.75
2022-11-14T08:00:13.709Z,9.75
2022-11-14T08:05:05.775Z,9.75
2022-11-14T08:09:57.469Z,9.71
2022-11-14T08:14:49.123Z,9.72
2022-11-14T08:19:40.869Z,9.74
2022-11-14T08:24:32.559Z,9.73
2022-11-14T08:29:24.409Z,9.73
2022-11-14T08:34:16.091Z,9.78
2022-11-14T08:39:07.786Z,9.79
2022-11-14T08:43:59.381Z,9.82
2022-11-14T08:48:51.042Z,9.80
2022-11-14T08:53:42.884Z,9.79
2022-11-14T08:58:34.847Z,9.79
2022-11-14T09:03:26.557Z,9.79
2022-11-14T09:08:18.252Z,9.82
2022-11-14T09:13:09.857Z,9.85
2022-11-14T09:18:01.703Z,9.86
2022-11-14T09:22:53.571Z,9.86
2022-11-14T09:27:45.309Z,9.92
2022-11-14T09:32:36.952Z,9.92
2022-11-14T09:37:28.749Z,9.93
2022-11-14T09:42:41.984Z,9.95
2022-11-14T09:47:42.142Z,9.93
2022-11-14T09:52:55.549Z,9.98
2022-11-14T09:57:48.009Z,10.04
2022-11-14T10:03:05.215Z,10.08
2022-11-14T10:08:13.149Z,10.10
2022-11-14T10:13:47.082Z,10.19
2022-11-14T10:18:54.270Z,10.21
2022-11-14T10:23:52.496Z,10.23
2022-11-14T10:29:36.868Z,10.28
2022-11-14T10:34:35.684Z,10.28
2022-11-14T10:45:24.372Z,10.44
2022-11-14T10:50:25.060Z,10.45
2022-11-14T10:55:37.201Z,10.50
2022-11-14T11:00:33.694Z,10.58
2022-11-14T11:05:30.708Z,10.62
2022-11-14T11:10:42.654Z,10.67
2022-11-14T11:15:41.457Z,10.73
2022-11-14T11:20:36.300Z,10.80
2022-11-14T11:25:30.808Z,10.82
2022-11-14T11:30:23.925Z,10.89
2022-11-14T11:35:17.349Z,11.00
2022-11-14T11:40:18.404Z,11.10
2022-11-14T11:45:17.654Z,11.19
2022-11-14T11:50:16.210Z,11.32
2022-11-14T11:55:29.682Z,11.47
2022-11-14T12:00:22.435Z,11.55
2022-11-14T12:05:20.504Z,11.55
2022-11-14T12:16:02.689Z,11.51
2022-11-14T12:21:26.924Z,11.54
2022-11-14T12:26:37.573Z,11.51
2022-11-14T12:36:47.672Z,11.50
2022-11-14T12:41:48.442Z,11.52
2022-11-14T12:47:04.553Z,11.58
2022-11-14T12:51:56.370Z,11.55
2022-11-14T13:02:45.148Z,11.56
2022-11-14T13:08:19.192Z,11.57
2022-11-14T13:13:34.903Z,11.50
2022-11-14T13:18:48.396Z,11.48
2022-11-14T13:23:44.803Z,11.52
2022-11-14T13:28:36.513Z,11.55
2022-11-14T13:33:49.863Z,11.59
2022-11-14T13:38:59.996Z,11.60
2022-11-14T13:44:06.585Z,11.60
2022-11-14T13:49:35.851Z,11.62
2022-11-14T13:54:29.254Z,11.64
2022-11-14T14:00:02.762Z,11.70
2022-11-14T14:05:16.143Z,11.76
2022-11-14T14:10:30.204Z,11.80
2022-11-14T14:15:29.727Z,11.80
2022-11-14T14:20:30.104Z,11.83
2022-11-14T14:25:25.994Z,11.87
2022-11-14T14:30:19.440Z,11.99
2022-11-14T14:35:27.485Z,12.01
2022-11-14T14:40:35.424Z,11.99
2022-11-14T14:45:29.479Z,12.03
2022-11-14T14:50:24.394Z,12.10
2022-11-14T14:55:24.005Z,12.09
2022-11-14T15:00:23.207Z,12.04
2022-11-14T15:05:26.375Z,11.96
2022-11-14T15:10:29.753Z,11.91
2022-11-14T15:15:25.678Z,11.83
2022-11-14T15:20:24.518Z,11.81
2022-11-14T15:25:20.327Z,11.76
2022-11-14T15:30:21.974Z,11.70
2022-11-14T15:35:24.870Z,11.68
2022-11-14T15:40:22.042Z,11.67
2022-11-14T15:45:25.526Z,11.64
2022-11-14T15:50:17.142Z,11.62
2022-11-14T15:55:16.750Z,11.61
2022-11-14T16:00:12.813Z,11.60
2022-11-14T16:05:05.151Z,11.60
2022-11-14T16:09:56.771Z,11.59
2022-11-14T16:14:48.435Z,11.57
2022-11-14T16:19:40.192Z,11.58
2022-11-14T16:24:34.153Z,11.54
2022-11-14T16:29:26.377Z,11.56
2022-11-14T16:34:23.766Z,11.53
2022-11-14T16:39:15.846Z,11.50
2022-11-14T16:44:14.660Z,11.46
2022-11-14T16:49:06.811Z,11.44
2022-11-14T16:53:58.682Z,11.42
2022-11-14T16:58:54.664Z,11.40
2022-11-14T17:03:46.472Z,11.39
2022-11-14T17:08:38.312Z,11.36
2022-11-14T17:13:32.263Z,11.36
2022-11-14T17:18:24.149Z,11.37
2022-11-14T17:23:15.878Z,11.38
2022-11-14T17:28:07.521Z,11.37
2022-11-14T17:32:59.230Z,11.42
2022-11-14T17:37:52.304Z,11.45
2022-11-14T17:42:45.621Z,11.45
2022-11-14T17:47:37.291Z,11.44
2022-11-14T17:52:28.849Z,11.44
2022-11-14T17:57:20.647Z,11.43
2022-11-14T18:02:14.273Z,11.44
2022-11-14T18:07:05.955Z,11.42
2022-11-14T18:11:57.588Z,11.40
2022-11-14T18:17:11.724Z,11.37
2022-11-14T18:22:00.978Z,11.36
2022-11-14T18:26:53.326Z,11.33
2022-11-14T18:31:45.180Z,11.33
2022-11-14T18:36:37.039Z,11.29
2022-11-14T18:41:28.899Z,11.28
2022-11-14T18:46:22.430Z,11.26
2022-11-14T18:51:18.068Z,11.23
2022-11-14T18:56:15.915Z,11.21
2022-11-14T19:01:12.438Z,11.22
2022-11-14T19:06:05.592Z,11.19
2022-11-14T19:11:04.889Z,11.16
2022-11-14T19:16:04.857Z,11.17
2022-11-14T19:21:01.242Z,11.16
2022-11-14T19:25:58.638Z,11.13
2022-11-14T19:30:50.260Z,11.11
2022-11-14T19:35:41.843Z,11.11
2022-11-14T19:40:33.522Z,11.11
2022-11-14T19:45:25.289Z,11.06
2022-11-14T19:50:17.076Z,11.03
2022-11-14T19:55:08.787Z,11.03
2022-11-14T20:00:00.721Z,10.97
2022-11-14T20:04:52.421Z,10.89
2022-11-14T20:09:44.010Z,10.83
2022-11-14T20:14:35.878Z,10.76
2022-11-14T20:19:27.735Z,10.67
2022-11-14T20:24:22.544Z,10.58
2022-11-14T20:29:14.217Z,10.47
2022-11-14T20:34:06.192Z,10.37
2022-11-14T20:38:58.255Z,10.27
2022-11-14T20:43:50.020Z,10.12
2022-11-14T20:48:42.247Z,9.95
2022-11-14T20:53:34.779Z,9.88
2022-11-14T20:58:27.933Z,9.83
2022-11-14T21:03:20.211Z,9.79
2022-11-14T21:08:12.181Z,9.77
2022-11-14T21:13:26.668Z,9.73
2022-11-14T21:18:18.342Z,9.57
2022-11-14T21:23:10.005Z,9.48
2022-11-14T21:28:01.559Z,9.40
2022-11-14T21:32:54.190Z,9.34
2022-11-14T21:37:45.751Z,9.28
2022-11-14T21:42:39.850Z,9.21
2022-11-14T21:47:31.570Z,9.13
2022-11-14T21:52:23.486Z,9.04
2022-11-14T21:57:15.141Z,8.98
2022-11-14T22:02:28.955Z,8.98
2022-11-14T22:07:20.704Z,8.89
2022-11-14T22:12:12.561Z,8.79
2022-11-14T22:17:04.309Z,8.72
2022-11-14T22:21:55.961Z,8.63
2022-11-14T22:26:47.567Z,8.57
2022-11-14T22:31:39.273Z,8.51
2022-11-14T22:36:30.909Z,8.47
2022-11-14T22:41:31.533Z,8.40
2022-11-14T22:46:25.131Z,8.32
2022-11-14T22:51:19.341Z,8.26
2022-11-14T22:56:11.769Z,8.20
2022-11-14T23:01:14.650Z,8.21
2022-11-14T23:06:11.332Z,8.15
2022-11-14T23:11:09.883Z,8.12
2022-11-14T23:16:01.631Z,8.07
2022-11-14T23:20:53.471Z,8.01
2022-11-14T23:25:45.253Z,7.97
2022-11-14T23:30:36.996Z,7.94
2022-11-14T23:35:28.920Z,7.88
2022-11-14T23:40:20.873Z,7.83
2022-11-14T23:45:12.710Z,7.79
2022-11-14T23:50:04.626Z,7.77
2022-11-14T23:54:56.395Z,7.75
2022-11-14T23:59:48.253Z,7.74
